Tiempo atmosférico en la estación meteorológica de Ciudad Real, Ciudad Real (628 m.)



Fecha
DESCASC
Temp. máxima en grados centígrados (hora)
DESCASC
Temp. mínima en grados centígrados (hora)
DESCASC
Temp. media en grados centígrados
DESCASC
Racha de viento máxima en m/sg (hora)
DESCASC
Velocidad máxima media en intervalos de 10 minutos(hora)
DESCASC
Precipitaciones diarias en mm
DESCASC
Precipitaciones de 00:00 a 06:00 en mm
DESCASC
Precipitaciones de 06:00 a 12:00 en mm
DESCASC
Precipitaciones de 12:00 a 18:00 en mm
DESCASC
Precipitaciones de 18:00 a 24:00 en mm
DESCASC
05-04-2020 22.5 (15:20) 8.6 (08:20) 15.6 8.33 (17:20) 4.17 (18:50) 0 0 0 0 0
04-04-2020 21.8 (16:00) 4.6 (08:00) 13.2 7.78 (16:50) 3.89 (16:20) 0 0 0 0 0
03-04-2020 18.3 (17:40) 5.1 (08:20) 11.7 5 (14:00) 2.78 (10:40) 0 0 0 0 0
02-04-2020 15.7 (18:30) 4.3 (00:00) 10 12.5 (21:00) 5.28 (21:10) 0 0 0 0 0
01-04-2020 16.4 (15:40) 7.4 (00:00) 11.9 8.33 (16:40) 3.89 (16:50) 3.6 3.6 0 0 0
31-03-2020 15.3 (14:40) 4.3 (00:00) 9.8 10.83 (12:50) 6.39 (15:40) 18.2 2.6 2.2 0.2 13.2
30-03-2020 12.3 (15:00) 4.2 (00:00) 8.3 8.06 (20:00) 3.61 (20:00) 7.2 0 1.6 1.2 4.4
29-03-2020 19.3 (16:00) 1.8 (00:00) 10.5 5.56 (16:50) 2.78 (20:50) 0 0 0 0 0
28-03-2020 16.5 (15:20) 1.8 (00:00) 9.1 7.78 (16:50) 4.17 (10:20) 0 0 0 0 0
27-03-2020 9.3 (12:50) 3.2 (00:00) 6.3 11.67 (13:40) 5.83 (14:10) 0 0 0 0 0
26-03-2020 19.5 (15:10) 7.6 (00:00) 13.5 9.72 (17:40) 4.17 (17:40) 0 0 0 0 0
25-03-2020 17.6 (15:50) 3.7 (00:00) 10.7 8.61 (00:10) 4.72 (00:10) 0 0 0 0 0
24-03-2020 13.8 (14:40) 8.2 (00:00) 11 15.83 (12:10) 8.89 (16:50) 0 0 0 0 0
23-03-2020 16.6 (14:40) 5.6 (00:00) 11.1 11.39 (16:50) 6.39 (16:50) 1.4 0 0.2 0.2 1
22-03-2020 11.1 (16:10) 3.1 (07:40) 7.1 5 (17:20) 2.5 (11:00) 4 0 0.8 3.2 0
21-03-2020 13.7 (16:40) 6.9 (00:00) 10.3 8.33 (08:40) 3.89 (08:40) 6 0.8 3.4 0 1.8
20-03-2020 19.1 (15:50) 6.7 (00:00) 12.9 8.61 (22:10) 4.44 (22:00) 0 0 0 0 0
19-03-2020 19.2 (15:40) 5.3 (00:00) 12.3 8.61 (21:20) 4.44 (01:40) 0 0 0 0 0
18-03-2020 17 (13:50) 8.4 (00:00) 12.7 12.78 (17:00) 6.67 (13:20) 0 0 0 0 0
17-03-2020 18.2 (16:20) 2.1 (00:00) 10.2 11.94 (20:10) 6.67 (18:30) 0 0 0 0 0
16-03-2020 11.2 (00:30) 2.8 (00:00) 7 10 (01:30) 5.28 (05:00) 2.2 1.4 0.4 0.4 0
15-03-2020 22.8 (15:30) 8.1 (00:00) 15.4 11.39 (19:30) 5 (19:40) 11.2 0 0 0 11.2
14-03-2020 22.9 (15:00) 8.1 (00:00) 15.5 4.44 (15:10) 2.22 (10:30) 0 0 0 0 0
13-03-2020 23.6 (15:20) 11.7 (08:50) 17.7 7.5 (14:10) 3.61 (15:50) 0 0 0 0 0
12-03-2020 27.1 (16:00) 8.9 (00:00) 18 6.39 (15:10) 3.61 (18:00) 0 0 0 0 0
11-03-2020 27.7 (16:00) 6.5 (00:00) 17.1 3.89 (17:00) 2.5 (17:30) 0 0 0 0 0
10-03-2020 23.4 (16:00) 5.8 (00:00) 14.6 5 (17:00) 2.5 (16:50) 0 0 0 0 0
09-03-2020 19.1 (16:30) 6.9 (00:00) 13 5.28 (17:40) 3.33 (18:40) 0 0 0 0 0
08-03-2020 19.7 (16:00) 1.8 (00:00) 10.8 7.5 (15:10) 3.33 (14:30) 0 0 0 0 0

Gráficas

Temp. máximas Temp. mínimas Temp. medias Precipitaciones Rachas de viento máximas Velocidades máximas media en intervalos de 10 minutos

Datos horarios

Fecha y hora oficial Temperatura (ºC) Velocidad del viento (km/h) Dirección del viento Racha (km/h) Dirección de racha Precipitación (mm) Presión (hPa) Tendencia (hPa) Humedad (%)
2020-04-06 23:00:00 15 5 Oeste 19 Oeste 0 949.8 1.4 81
2020-04-06 22:00:00 16.1 8 Oeste 14 Sudoeste 0 949.3 1.4 73
2020-04-06 21:00:00 16.7 6 Sudoeste 11 Sudoeste 0 948.4 0.3 68
2020-04-06 20:00:00 17.8 4 Oeste 14 Sudoeste 0 948.4 0 62
2020-04-06 19:00:00 18.1 6 Oeste 17 Oeste 0 947.9 -0.9 60
2020-04-06 18:00:00 18.5 8 Oeste 23 Noroeste 0 948.1 -0.9 56
2020-04-06 17:00:00 18.7 9 Oeste 22 Oeste 0 948.4 -0.5 61
2020-04-06 16:00:00 17.9 12 Oeste 26 Oeste 0 948.8 -0.2 67
2020-04-06 15:00:00 17 9 Oeste 19 Sudoeste 0 949 0.2 72
2020-04-06 14:00:00 15.5 6 Sudoeste 19 Oeste 0 948.9 0.6 82
2020-04-06 13:00:00 15.7 8 Sudoeste 16 Sudoeste 0 949 1.1 82
2020-04-06 12:00:00 14.9 8 Sudoeste 17 Oeste 0 948.8 1.6 87
2020-04-06 11:00:00 14.6 5 Sudoeste 12 Sudoeste 0 948.3 1.9 87
2020-04-06 10:00:00 14.2 4 Sur 6 Sur 0.2 947.9 1.9 85
2020-04-06 09:00:00 13 3 Este 7 Sur 0 947.2 1.5 91
2020-04-06 08:00:00 12.9 4 Sur 9 Sur 0.2 946.4 0.7 91
2020-04-06 07:00:00 13.3 5 Sudoeste 9 Sudoeste 0.2 946 0 86
2020-04-06 06:00:00 13.6 4 Sur 9 Sudoeste 0 945.7 -0.3 78
2020-04-06 05:00:00 13.6 3 Sur 10 Sur 0 945.7 -0.3 79
2020-04-06 04:00:00 13.3 2 Sudoeste 8 Sur 0 946 0.3 78
2020-04-06 03:00:00 13.7 5 Sudeste 10 Sur 0 946 0.6 74
2020-04-06 02:00:00 13.8 5 Sudoeste 12 Sudoeste 0 946 1 73
2020-04-06 01:00:00 14.4 6 Sudoeste 13 Sudoeste 0 945.7 1.1 68
2020-04-06 00:00:00 15.1 8 Sudoeste 15 Sudoeste 0 945.4 1.5 65
2020-04-05 23:00:00 16.1 6 Sur 13 Sudoeste 0 945 1.3 62
2020-04-05 22:00:00 16.9 5 Sudoeste 14 Sudoeste 0 944.6 1.2 58
2020-04-05 21:00:00 17.7 7 Sudoeste 17 Sudoeste 0 943.9 0.8 55
2020-04-05 20:00:00 18.7 9 Sudoeste 23 Oeste 0 943.7 0.6 50
2020-04-05 19:00:00 19.6 13 Sudoeste 26 Sudoeste 0 943.4 0 45
2020-04-05 18:00:00 21.1 12 Oeste 30 Sudoeste 0 943.1 -0.9 40
2020-04-05 17:00:00 21.8 9 Sudoeste 25 Sur 0 943.1 -1.4 37
2020-04-05 16:00:00 22.3 8 Sur 25 Oeste 0 943.4 -1.8 38
2020-04-05 15:00:00 22 10 Sudoeste 21 Oeste 0 944 -1.4 38
2020-04-05 14:00:00 21 7 Sur 15 Este 0 944.5 -1.2 41
2020-04-05 13:00:00 19.6 5 Sudeste 15 Sur 0 945.2 -0.1 44
2020-04-05 12:00:00 17.4 5 Sudeste 13 Este 0 945.4 0.6 50
2020-04-05 11:00:00 14.4 5 Sudeste 9 Nordeste 0 945.7 1.5 65
2020-04-05 10:00:00 11.5 3 Nordeste 14 Nordeste 0 945.3 1.3 81
2020-04-05 09:00:00 8.9 6 Nordeste 10 Nordeste 0 944.8 1.2 92
2020-04-05 08:00:00 8.9 6 Nordeste 13 Este 0 944.2 0.7 90
2020-04-05 07:00:00 9.5 6 Nordeste 12 Este 0 944 0.5 89
2020-04-05 06:00:00 10.4 5 Nordeste 11 Nordeste 0 943.6 -0.1 86
2020-04-05 05:00:00 11.6 0 Calma 5 Nordeste 0 943.5 -0.3 77
2020-04-05 04:00:00 12 2 Nordeste 7 Nordeste 0 943.5 -0.3 75
2020-04-05 03:00:00 12.8 0 Calma 5 Norte 0 943.7 0 72
2020-04-05 02:00:00 13.5 2 Este 8 Sudoeste 0 943.8 0.4 70
2020-04-05 01:00:00 13.7 2 Sudoeste 6 Sudeste 0 943.8 1.1 64
2020-04-05 00:00:00 14.3 3 Sur 9 Oeste 0 943.7 1.6 58
2020-04-04 23:00:00 14.7 5 Noroeste 13 Oeste 0 943.4 1.8 57
2020-04-04 22:00:00 15.6 6 Noroeste 18 Sudoeste 0 942.7 1.5 48
2020-04-04 21:00:00 16.6 10 Sur 26 Sudoeste 0 942.1 1.1 48
2020-04-04 20:00:00 18 8 Sudeste 20 Sur 0 941.6 0.8 38
2020-04-04 19:00:00 19.1 8 Sur 21 Sur 0 941.2 0.1 34
2020-04-04 18:00:00 20.1 10 Sudoeste 23 Sur 0 941 -0.7 28
2020-04-04 17:00:00 21.5 12 Sudeste 28 Sur 0 940.8 -1.3 26
2020-04-04 16:00:00 21.7 8 Sudeste 20 Sudeste 0 941.1 -1.4 29
2020-04-04 15:00:00 19.5 9 Este 24 Este 0 941.7 -1.2 35
2020-04-04 14:00:00 18.4 7 Este 23 Nordeste 0 942.1 -0.8 44
2020-04-04 13:00:00 16 12 Este 23 Este 0 942.5 -0.1 53
2020-04-04 12:00:00 13.6 12 Este 23 Este 0 942.9 0.2 65
2020-04-04 11:00:00 10.9 10 Este 19 Este 0 942.9 0.6 76
2020-04-04 10:00:00 8.1 12 Nordeste 18 Nordeste 0 942.6 0.8 86
2020-04-04 09:00:00 5.5 6 Nordeste 12 Este 0 942.7 0.6 96
2020-04-04 08:00:00 4.6 8 Nordeste 13 Nordeste 0 942.3 0 96
2020-04-04 07:00:00 4.8 9 Nordeste 14 Nordeste 0 941.8 -0.7 94
2020-04-04 06:00:00 5.5 6 Nordeste 11 Este 0 942.1 -1 90
2020-04-04 05:00:00 6.1 4 Nordeste 11 Norte 0 942.3 -0.8 88
2020-04-04 04:00:00 6.8 4 Nordeste 9 Norte 0 942.5 -0.8 86
2020-04-04 03:00:00 7.5 4 Norte 9 Nordeste 0 943.1 -0.2 84
2020-04-04 02:00:00 8.3 5 Nordeste 9 Nordeste 0 943.1 0 81
2020-04-04 01:00:00 9.2 3 Nordeste 6 Nordeste 0 943.3 0.7 75
2020-04-04 00:00:00 10.2 4 Nordeste 6 Nordeste 0 943.3 1.1 68
2020-04-03 23:00:00 11.4 0 Calma 3 Nordeste 0 943.1 0.9 65
2020-04-03 22:00:00 13 2 Nordeste 8 Este 0 942.6 0.4 58
2020-04-03 21:00:00 14.6 6 Nordeste 8 Nordeste 0 942.2 0 50
2020-04-03 20:00:00 15.9 3 Nordeste 8 Nordeste 0 942.2 -0.3 42
2020-04-03 19:00:00 17 6 Nordeste 14 Nordeste 0 942.2 -0.7 41
2020-04-03 18:00:00 18 6 Nordeste 17 Este 0 942.2 -1.2 41
2020-04-03 17:00:00 18 6 Norte 17 Este 0 942.5 -1.4 41
2020-04-03 16:00:00 17.8 4 Nordeste 16 Nordeste 0 942.9 -1.5 45
2020-04-03 15:00:00 17.3 4 Sur 14 Este 0 943.4 -1.2 43
2020-04-03 14:00:00 16.7 6 Sudeste 18 Este 0 943.9 -0.4 51
2020-04-03 13:00:00 15.5 6 Este 14 Este 0 944.4 0.6 59
2020-04-03 12:00:00 13.5 7 Este 13 Este 0 944.6 1 70
2020-04-03 11:00:00 11.6 9 Este 15 Este 0 944.3 1.3 78
2020-04-03 10:00:00 8.5 9 Este 12 Este 0 943.8 1.3 89
2020-04-03 09:00:00 5.7 3 Este 5 Este 0 943.6 1.3 95
2020-04-03 08:00:00 5.3 3 Noroeste 5 Nordeste 0 943 0.9 92
2020-04-03 07:00:00 5.7 4 Nordeste 5 Nordeste 0 942.5 0.6 90
2020-04-03 06:00:00 6.6 2 Este 8 Nordeste 0 942.3 0.4 87
2020-04-03 05:00:00 7.4 2 Sur 6 Sur 0 942.1 0 84
2020-04-03 04:00:00 8.6 3 Nordeste 7 Noroeste 0 941.9 -0.3 78
2020-04-03 03:00:00 9.6 6 Noroeste 9 Noroeste 0 941.9 -0.1 75
2020-04-03 02:00:00 9.9 5 Noroeste 9 Noroeste 0 942.1 0.2 73
2020-04-03 01:00:00 10.1 5 Noroeste 11 Oeste 0 942.2 1.2 71
2020-04-03 00:00:00 10 3 Oeste 9 Noroeste 0 942 1.9 73
2020-04-02 23:00:00 10.6 3 Norte 15 Nordeste 0 941.9 2.9 70
2020-04-02 22:00:00 11 5 Nordeste 40 Nordeste 0 941 2.4 65
2020-04-02 21:00:00 12 18 Nordeste 45 Nordeste 0 940.1 2 63
2020-04-02 20:00:00 14.9 12 Noroeste 21 Noroeste 0 939 0.7 40
2020-04-02 19:00:00 15.5 12 Noroeste 28 Noroeste 0 938.6 0.1 40
2020-04-02 18:00:00 15.2 7 Norte 15 Nordeste 0 938.1 -0.7 45
2020-04-02 17:00:00 14.4 6 Norte 26 Norte 0 938.3 -0.7 50
2020-04-02 16:00:00 13.3 10 Noroeste 23 Norte 0 938.5 -0.7 58
2020-04-02 15:00:00 13.8 5 Este 13 Este 0 938.8 -0.5 58
2020-04-02 14:00:00 12.4 4 Este 10 Este 0 939 -0.3 64
2020-04-02 13:00:00 11.6 4 Este 13 Norte 0 939.2 0.4 68
2020-04-02 12:00:00 10.3 2 Norte 10 Noroeste 0 939.3 1.2 75
2020-04-02 11:00:00 9 5 Sur 10 Sudeste 0 939.3 1.2 81
2020-04-02 10:00:00 6.3 3 Nordeste 6 Norte 0 938.8 1 91
2020-04-02 09:00:00 5 2 Este 5 Nordeste 0 938.1 0.5 94
2020-04-02 08:00:00 4.5 4 Norte 6 Norte 0 938.1 -0.2 96
2020-04-02 07:00:00 4.4 3 Nordeste 6 Nordeste 0 937.8 -0.8 91
2020-04-02 06:00:00 5.1 4 Sur 6 Sur 0 937.6 -1.6 91
2020-04-02 05:00:00 5.7 0 Calma 6 Nordeste 0 938.3 -1.4 89
2020-04-02 04:00:00 6.9 0 Calma 8 Sur 0 938.6 -1.3 84
2020-04-02 03:00:00 7.2 3 Sudeste 9 Sudoeste 0 939.2 -0.7 83
2020-04-02 02:00:00 8.1 5 Sudoeste 10 Sudoeste 0 939.7 0 79
2020-04-02 01:00:00 8.8 5 Sudoeste 11 Oeste 0 939.9 0.7 78
2020-04-02 00:00:00 9.2 6 Oeste 14 Oeste 0 939.9 1.4 74
2020-04-01 23:00:00 9.2 7 Sudoeste 19 Oeste 0 939.7 1.4 74
2020-04-01 22:00:00 9.8 6 Oeste 27 Oeste 0 939.2 1.1 70
2020-04-01 21:00:00 12 6 Oeste 15 Sudoeste 0 938.5 0.4 55
2020-04-01 20:00:00 13.2 8 Oeste 21 Sudoeste 0 938.3 0.1 48
2020-04-01 19:00:00 14.3 12 Noroeste 26 Noroeste 0 938.1 -0.2 46
2020-04-01 18:00:00 14.9 10 Oeste 29 Oeste 0 938.1 -0.7 47
2020-04-01 17:00:00 15.7 12 Oeste 30 Noroeste 0 938.2 -1 47
2020-04-01 16:00:00 16.2 13 Oeste 27 Noroeste 0 938.3 -1.4 48
2020-04-01 15:00:00 15.8 9 Oeste 23 Noroeste 0 938.8 -1.1 52
2020-04-01 14:00:00 14.8 7 Sudoeste 22 Sudoeste 0 939.2 -0.5 51
2020-04-01 13:00:00 12.9 11 Oeste 22 Oeste 0 939.7 0.3 59
2020-04-01 12:00:00 12.8 8 Sudoeste 22 Sudoeste 0 939.9 1 75
2020-04-01 11:00:00 11.2 11 Oeste 23 Oeste 0 939.7 1.5 88
2020-04-01 10:00:00 9.3 8 Oeste 17 Sudoeste 0 939.4 1.7 97
2020-04-01 09:00:00 7.7 6 Sudoeste 12 Sudoeste 0 938.9 1.4 99
2020-04-01 08:00:00 7.6 6 Sudoeste 11 Sur 0 938.2 0.8 98
2020-04-01 07:00:00 8 2 Oeste 8 Sudoeste 0 937.7 0.2 99
2020-04-01 06:00:00 8.2 2 Sur 9 Sudeste 0 937.5 -0.4 99
2020-04-01 05:00:00 8.6 5 Este 10 Este 0 937.4 -0.4 98
2020-04-01 04:00:00 8.7 2 Este 8 Sur 0.2 937.5 0.1 98
2020-04-01 03:00:00 8.7 2 Sudeste 13 Sur 0.4 937.9 0.7 98
2020-04-01 02:00:00 8.8 8 Sur 16 Sudeste 1.8 937.8 0.8 97
2020-04-01 01:00:00 8.9 7 Sudeste 16 Sudeste 1.2 937.4 0.9 96
2020-04-01 00:00:00 9.2 9 Sudeste 15 Sudeste 1.6 937.2 2.1 97
2020-03-31 23:00:00 9.1 7 Sudeste 13 Sudoeste 3.2 937 2.8 95
2020-03-31 22:00:00 9.6 3 Este 17 Noroeste 6.6 936.5 2.6 92
2020-03-31 21:00:00 11.2 4 Sudeste 21 Sur 1.4 935.1 1.4 92
2020-03-31 20:00:00 11.7 9 Sudeste 23 Sudeste 0.2 934.2 0.8 87
2020-03-31 19:00:00 12.6 16 Sudeste 32 Sudeste 0.2 933.9 0.5 81
2020-03-31 18:00:00 13.3 11 Sudeste 26 Sur 0.2 933.7 0.5 77
2020-03-31 17:00:00 14 14 Sudeste 30 Sur 0 933.4 0.1 66
2020-03-31 16:00:00 14.5 19 Sur 38 Sur 0 933.4 0.5 67
2020-03-31 15:00:00 15.2 13 Sur 28 Sur 0 933.2 0.5 64
2020-03-31 14:00:00 13.4 13 Sur 32 Sur 0 933.3 0.8 70
2020-03-31 13:00:00 14.5 18 Sur 39 Sur 0 932.9 0.5 67
2020-03-31 12:00:00 11.6 13 Sur 34 Sur 0 932.7 0.6 83
2020-03-31 11:00:00 9.6 8 Sudeste 23 Este 0 932.5 0.7 96
2020-03-31 10:00:00 7.8 10 Este 17 Este 1 932.4 0.7 99
2020-03-31 09:00:00 7 6 Este 16 Este 0.2 932.1 0.2 100
2020-03-31 08:00:00 6.4 7 Este 12 Nordeste 0.4 931.8 -0.8 100
2020-03-31 07:00:00 6 5 Este 18 Este 0.6 931.7 -1.7 100
2020-03-31 06:00:00 5.6 10 Este 17 Este 0.4 931.9 -2 100
2020-03-31 05:00:00 5.2 5 Nordeste 17 Este 0.4 932.6 -2.5 99
2020-03-31 04:00:00 4.7 4 Nordeste 13 Nordeste 0.8 933.4 -2.6 99
2020-03-31 03:00:00 4.4 9 Nordeste 16 Nordeste 0.6 933.9 -2.4 98
2020-03-31 02:00:00 4.8 9 Este 15 Este 0.2 935.1 -1.9 98
2020-03-31 01:00:00 4.5 3 Este 13 Nordeste 0.2 936 -1.3 96
2020-03-31 00:00:00 4.3 8 Este 22 Nordeste 0 936.3 -0.8 95
2020-03-30 23:00:00 4.5 8 Nordeste 26 Nordeste 0.4 937 0.8 94
2020-03-30 22:00:00 5.1 10 Nordeste 24 Norte 1 937.3 0.6 92
2020-03-30 21:00:00 6.4 8 Nordeste 25 Norte 1 937.1 0.7 90
2020-03-30 20:00:00 7.8 13 Nordeste 29 Norte 1 936.2 -0.8 87
2020-03-30 19:00:00 9.3 5 Norte 19 Nordeste 1 936.7 -1.2 86
2020-03-30 18:00:00 10.5 8 Nordeste 19 Nordeste 0 936.4 -1.9 83
2020-03-30 17:00:00 10.8 11 Este 17 Nordeste 0.2 937 -2.1 80
2020-03-30 16:00:00 11.3 5 Nordeste 13 Este 0.8 937.9 -1.8 79
2020-03-30 15:00:00 12.2 10 Este 18 Este 0 938.3 -2 68
2020-03-30 14:00:00 11.3 6 Este 17 Este 0 939.1 -1.1 75
2020-03-30 13:00:00 9.9 10 Este 18 Este 0.2 939.7 -0.2 83
2020-03-30 12:00:00 9.5 3 Nordeste 12 Nordeste 0.8 940.3 0.6 83
2020-03-30 11:00:00 9.7 5 Nordeste 11 Norte 0.4 940.2 0.7 80
2020-03-30 10:00:00 9.7 0 Calma 10 Oeste 0.4 939.9 0.7 81
2020-03-30 09:00:00 10 4 Oeste 13 Sudoeste 0 939.7 0.1 72
2020-03-30 08:00:00 10 3 Sudoeste 10 Sudoeste 0 939.5 -1 67
2020-03-30 07:00:00 9.8 4 Oeste 13 Oeste 0 939.2 -1.5 66
2020-03-30 06:00:00 9.9 5 Noroeste 14 Sudoeste 0 939.6 -1.7 61
2020-03-30 05:00:00 9.9 6 Oeste 13 Oeste 0 940.5 -1.3 60
2020-03-30 04:00:00 10.5 4 Oeste 13 Oeste 0 940.7 -1.7 57
2020-03-30 03:00:00 11 6 Sudoeste 11 Sudoeste 0 941.3 -1.3 56
2020-03-30 02:00:00 11.2 5 Sudoeste 12 Sudoeste 0 941.8 -0.9 55
2020-03-30 01:00:00 11.8 6 Sudoeste 12 Sudoeste 0 942.4 -0.2 54
2020-03-30 00:00:00 12.2 5 Oeste 11 Sudoeste 0 942.6 0.3 52
2020-03-29 23:00:00 12.5 6 Noroeste 13 Oeste 0 942.7 0.3 51
2020-03-29 22:00:00 13.5 5 Oeste 15 Sudoeste 0 942.6 0.2 48
2020-03-29 21:00:00 15.3 7 Oeste 17 Sudoeste 0 942.3 -0.3 42
2020-03-29 20:00:00 16.5 7 Oeste 17 Oeste 0 942.4 -0.7 35
2020-03-29 19:00:00 17.4 9 Noroeste 17 Noroeste 0 942.4 -1.2 31
2020-03-29 18:00:00 18.3 7 Sudoeste 18 Sudoeste 0 942.6 -1.9 28
2020-03-29 17:00:00 18.6 6 Oeste 20 Noroeste 0 943.1 -1.9 28
2020-03-29 16:00:00 19.2 6 Este 15 Sudeste 0 943.6 -1.9 28
2020-03-29 15:00:00 17.8 8 Este 15 Este 0 944.5 -1.6 32
2020-03-29 14:00:00 17.2 7 Este 16 Este 0 945 -1.3 35
2020-03-29 13:00:00 15.7 4 Sudeste 10 Este 0 945.5 -0.7 39
2020-03-29 12:00:00 13.1 3 Sudeste 9 Nordeste 0 946.1 0.1 53
2020-03-29 11:00:00 9.4 3 Este 6 Este 0 946.3 0.7 68
2020-03-29 10:00:00 5 4 Este 7 Este 0 946.2 0.9 83
2020-03-29 09:00:00 2.1 0 Calma 5 Noroeste 0 946 0.7 89
2020-03-29 08:00:00 2 3 Noroeste 4 Noroeste 0 945.6 0.1 88
2020-03-29 07:00:00 3 0 Calma 5 Sur 0 945.3 -0.5 86
2020-03-29 06:00:00 3.5 4 Sudeste 8 Sur 0 945.3 -0.8 85
2020-03-29 05:00:00 3.9 3 Sudeste 5 Sudeste 0 945.5 -0.9 84
2020-03-29 03:00:00 4.9 3 Norte 6 Nordeste 0 946.1 0.1 78
2020-03-29 01:00:00 5.7 3 Nordeste 6 Nordeste 0 946.4 0.7 75
2020-03-29 00:00:00 6.6 0 Calma 8 Este 0 946.3 0.9 71
2020-03-28 23:00:00 7.6 5 Este 9 Este 0 946 1.3 65
2020-03-28 22:00:00 8.5 4 Este 8 Este 0 945.7 1.4 59
2020-03-28 21:00:00 9.7 4 Este 9 Nordeste 0 945.4 1.6 51
2020-03-28 20:00:00 11.2 4 Nordeste 14 Este 0 944.7 1.3 45
2020-03-28 19:00:00 13.2 9 Nordeste 24 Nordeste 0 944.3 0.8 34
2020-03-28 18:00:00 14.9 7 Nordeste 25 Nordeste 0 943.8 0 30
2020-03-28 17:00:00 16 9 Nordeste 28 Nordeste 0 943.4 -0.7 30
2020-03-28 16:00:00 16.2 8 Nordeste 19 Este 0 943.5 -1 33
2020-03-28 15:00:00 15.3 8 Este 23 Este 0 943.8 -1 41
2020-03-28 14:00:00 15.7 11 Este 26 Este 0 944.1 -0.7 43
2020-03-28 13:00:00 13.7 13 Este 24 Nordeste 0 944.5 0 52
2020-03-28 12:00:00 12.3 11 Este 22 Nordeste 0 944.8 0.8 62
2020-03-28 11:00:00 10.4 9 Nordeste 23 Este 0 944.8 1.3 65
2020-03-28 10:00:00 7.6 12 Este 24 Nordeste 0 944.5 1.5 77
2020-03-28 09:00:00 4.3 7 Este 15 Este 0 944 1.6 93
2020-03-28 08:00:00 2.2 8 Este 15 Este 0 943.5 1.3 98
2020-03-28 07:00:00 2.1 6 Este 11 Este 0 943 1.1 97
2020-03-28 06:00:00 2.1 4 Este 10 Este 0 942.4 0.6 97
2020-03-28 05:00:00 2.1 8 Nordeste 15 Este 0 942.2 0.1 97
2020-03-28 04:00:00 1.9 9 Este 17 Nordeste 0 941.9 0.2 96
2020-03-28 03:00:00 1.9 8 Nordeste 13 Nordeste 0 941.8 0.1 94
2020-03-28 02:00:00 2.2 6 Nordeste 18 Nordeste 0 942.1 0.7 93
2020-03-28 01:00:00 2.4 9 Nordeste 18 Nordeste 0 941.7 0.6 92
2020-03-28 00:00:00 3.4 9 Este 23 Este 0 941.7 1.1 90
2020-03-27 23:00:00 4.2 13 Este 29 Nordeste 0 941.4 1.5 87
2020-03-27 22:00:00 4.8 15 Este 28 Nordeste 0 941.1 1.8 86
2020-03-27 21:00:00 4.9 14 Este 34 Nordeste 0 940.6 2 82
2020-03-27 20:00:00 5.5 16 Este 32 Nordeste 0 939.9 1.7 80
2020-03-27 19:00:00 6.2 15 Nordeste 33 Nordeste 0 939.3 0.9 77
2020-03-27 18:00:00 7.3 16 Nordeste 31 Nordeste 0 938.6 0.4 73
2020-03-27 17:00:00 7.2 14 Nordeste 27 Nordeste 0 938.2 0.1 74
2020-03-27 16:00:00 6.6 14 Nordeste 31 Nordeste 0 938.4 0.5 77
2020-03-27 15:00:00 7 15 Nordeste 37 Nordeste 0 938.2 0.5 75
2020-03-27 14:00:00 8 18 Nordeste 42 Nordeste 0 938.1 0.7 72
2020-03-27 13:00:00 9 14 Nordeste 35 Nordeste 0 937.9 1.1 67
2020-03-27 12:00:00 8.2 15 Nordeste 32 Nordeste 0 937.7 1.5 73
2020-03-27 11:00:00 7.4 14 Nordeste 28 Nordeste 0 937.4 1.7 75
2020-03-27 10:00:00 6.6 11 Nordeste 25 Nordeste 0 936.8 1.6 82
2020-03-27 09:00:00 5.5 5 Nordeste 14 Nordeste 0 936.2 1.3 85
2020-03-27 08:00:00 3.6 4 Norte 9 Sur 0 935.7 0.9 86
2020-03-27 07:00:00 3.3 4 Este 8 Este 0 935.2 0.3 87
2020-03-27 06:00:00 3.5 5 Nordeste 13 Nordeste 0 934.9 -0.7 87
2020-03-27 05:00:00 3.8 4 Nordeste 12 Nordeste 0 934.8 -1.1 84
2020-03-27 04:00:00 4.4 6 Nordeste 11 Nordeste 0 934.9 -1.4 80
2020-03-27 03:00:00 5.6 7 Nordeste 18 Nordeste 0 935.6 -1 71
2020-03-27 02:00:00 6.4 4 Nordeste 9 Nordeste 0 935.9 -0.9 65
2020-03-27 01:00:00 7.4 2 Nordeste 8 Nordeste 0 936.3 -0.1 61
2020-03-27 00:00:00 8.3 5 Nordeste 12 Este 0 936.6 0.5 58
2020-03-26 23:00:00 10.1 4 Este 10 Nordeste 0 936.8 1.7 49
2020-03-26 22:00:00 12.4 3 Norte 11 Noroeste 0 936.4 1.6 39
2020-03-26 21:00:00 14.2 5 Norte 15 Sudoeste 0 936.1 1.6 34
2020-03-26 20:00:00 15.2 8 Oeste 24 Oeste 0 935.1 0.5 45
2020-03-26 19:00:00 16.5 8 Oeste 20 Oeste 0 934.8 -0.1 42
2020-03-26 18:00:00 17.5 11 Oeste 35 Oeste 0 934.5 -0.8 44
2020-03-26 17:00:00 18 12 Oeste 26 Oeste 0 934.6 -1.3 44
2020-03-26 16:00:00 18.4 11 Noroeste 28 Noroeste 0 934.9 -1.7 42
2020-03-26 15:00:00 19.1 12 Oeste 23 Oeste 0 935.3 -2.1 41
2020-03-26 14:00:00 17.9 10 Noroeste 23 Noroeste 0 935.9 -1.9 47
2020-03-26 13:00:00 16.9 8 Noroeste 20 Noroeste 0 936.6 -1.3 39
2020-03-26 12:00:00 16.1 4 Sur 16 Oeste 0 937.4 -0.7 44
2020-03-26 11:00:00 14.5 5 Noroeste 16 Noroeste 0 937.8 -0.3 58
2020-03-26 10:00:00 12.4 7 Oeste 17 Sudoeste 0 937.9 0.2 77
2020-03-26 09:00:00 9.6 7 Oeste 12 Noroeste 0 938.1 0.6 90
2020-03-26 08:00:00 7.9 5 Oeste 10 Sudoeste 0 938.1 0.5 93
2020-03-26 07:00:00 8.1 5 Noroeste 11 Oeste 0 937.7 -0.5 90
2020-03-26 06:00:00 8.5 5 Oeste 14 Oeste 0 937.5 -1.3 88
2020-03-26 05:00:00 8.9 6 Oeste 15 Oeste 0 937.6 -1.7 85
2020-03-26 04:00:00 9.5 8 Oeste 20 Oeste 0 938.2 -1.2 83
2020-03-26 03:00:00 9.6 6 Oeste 13 Sudoeste 0 938.8 -1 80
2020-03-26 02:00:00 9.5 5 Oeste 19 Oeste 0 939.3 -0.9 79
2020-03-26 01:00:00 9.7 8 Oeste 18 Oeste 0 939.4 -1 77
2020-03-26 00:00:00 10.1 9 Sudoeste 17 Oeste 0 939.8 -0.8 76
2020-03-25 23:00:00 10.7 7 Oeste 16 Sudoeste 0 940.2 -0.2 74
2020-03-25 22:00:00 11.4 6 Sudoeste 16 Oeste 0 940.4 0.4 71
2020-03-25 21:00:00 12.2 11 Sudoeste 20 Sudoeste 0 940.6 0.5 65
2020-03-25 20:00:00 13.6 8 Oeste 22 Oeste 0 940.4 -0.1 57
2020-03-25 19:00:00 15.9 9 Oeste 23 Noroeste 0 940 -1 44
2020-03-25 18:00:00 16.8 8 Noroeste 23 Noroeste 0 940.1 -1.8 36
2020-03-25 17:00:00 17.3 9 Oeste 23 Oeste 0 940.5 -2.2 37
2020-03-25 16:00:00 17.1 4 Noroeste 21 Sudoeste 0 941 -2.2 39
2020-03-25 15:00:00 17 5 Sudoeste 18 Sudoeste 0 941.9 -1.7 43
2020-03-25 14:00:00 15.6 5 Sur 17 Noroeste 0 942.7 -1 51
2020-03-25 13:00:00 14.4 7 Oeste 15 Sudoeste 0 943.2 -0.6 52
2020-03-25 12:00:00 13.1 3 Sur 12 Este 0 943.6 0.2 54
2020-03-25 11:00:00 11.8 6 Este 13 Este 0 943.7 0.4 63
2020-03-25 10:00:00 9.1 5 Nordeste 14 Nordeste 0 943.8 0.8 74
2020-03-25 09:00:00 5.8 5 Nordeste 10 Norte 0 943.4 0.5 90
2020-03-25 08:00:00 4 6 Nordeste 12 Norte 0 943.3 0.4 95
2020-03-25 07:00:00 4 3 Nordeste 8 Nordeste 0 943 -0.1 93
2020-03-25 06:00:00 4.6 4 Nordeste 10 Nordeste 0 942.9 -0.7 91
2020-03-25 05:00:00 5.8 5 Este 11 Nordeste 0 942.9 -0.8 89
2020-03-25 04:00:00 6.5 6 Nordeste 12 Nordeste 0 943.1 -0.4 90
2020-03-25 03:00:00 6.7 8 Nordeste 13 Nordeste 0 943.6 0.3 88
2020-03-25 02:00:00 6.2 4 Nordeste 14 Nordeste 0 943.7 0.5 87
2020-03-25 01:00:00 7.2 6 Nordeste 31 Este 0 943.5 0.4 81
2020-03-25 00:00:00 8.2 15 Este 28 Este 0 943.3 0.5 78
2020-03-24 23:00:00 8.6 19 Este 34 Este 0 943.2 0.9 82
2020-03-24 22:00:00 9 15 Este 32 Nordeste 0 943.1 1.3 82
2020-03-24 21:00:00 9.4 20 Este 34 Este 0 942.8 1.5 80
2020-03-24 20:00:00 9.5 18 Nordeste 47 Este 0 942.3 1.5 81
2020-03-24 19:00:00 10.5 20 Nordeste 53 Este 0 941.8 1.2 78
2020-03-24 18:00:00 10.9 25 Este 55 Nordeste 0 941.3 0.7 76
2020-03-24 17:00:00 11.8 30 Este 55 Nordeste 0 940.8 0.1 71
2020-03-24 16:00:00 12.4 29 Este 52 Nordeste 0 940.6 -0.3 70
2020-03-24 15:00:00 13.3 25 Nordeste 55 Este 0 940.6 -0.5 68
2020-03-24 14:00:00 13.3 26 Este 53 Nordeste 0 940.7 0 70
2020-03-24 13:00:00 11.7 26 Nordeste 57 Este 0 940.9 0.2 76
2020-03-24 12:00:00 10.6 24 Nordeste 49 Este 0 941.1 0.6 82
2020-03-24 11:00:00 10.9 27 Este 49 Este 0 940.7 0.2 80
2020-03-24 10:00:00 10.3 23 Este 46 Nordeste 0 940.7 0.7 82
2020-03-24 09:00:00 9.3 19 Este 42 Este 0 940.5 0.7 80
2020-03-24 08:00:00 8.7 17 Este 35 Nordeste 0 940.5 0.6 87
2020-03-24 07:00:00 8.7 16 Este 33 Nordeste 0 940 -0.2 89
2020-03-24 06:00:00 9 18 Nordeste 31 Nordeste 0 939.8 -0.7 94
2020-03-24 05:00:00 8.6 12 Nordeste 28 Nordeste 0 939.9 -0.9 94
2020-03-24 04:00:00 8.8 14 Nordeste 32 Nordeste 0 940.2 -0.9 92
2020-03-24 03:00:00 8.9 15 Nordeste 31 Nordeste 0 940.5 -0.8 92
2020-03-24 02:00:00 8.7 16 Nordeste 32 Nordeste 0 940.8 -0.7 92
2020-03-24 01:00:00 9.5 14 Nordeste 30 Nordeste 0 941.1 -0.3 89
2020-03-24 00:00:00 9.8 14 Este 32 Nordeste 0 941.3 0.5 93
2020-03-23 23:00:00 9.7 10 Nordeste 27 Nordeste 0.4 941.5 1.3 95
2020-03-23 22:00:00 10 15 Este 32 Este 0.4 941.4 1.5 91
2020-03-23 21:00:00 10.8 19 Este 34 Este 0 940.8 1.1 82
2020-03-23 20:00:00 11 8 Nordeste 19 Nordeste 0 940.2 1.1 83
2020-03-23 19:00:00 11.4 9 Nordeste 19 Nordeste 0.2 939.9 1.1 79
2020-03-23 18:00:00 12.1 13 Nordeste 29 Este 0.2 939.7 0.1 78
2020-03-23 17:00:00 14 23 Este 41 Este 0 939.1 -1.2 60
2020-03-23 16:00:00 16.2 12 Este 25 Este 0 938.8 -2.1 47
2020-03-23 15:00:00 15.7 13 Este 28 Este 0 939.6 -1.6 52
2020-03-23 14:00:00 14.9 15 Este 27 Este 0 940.3 -1.2 57
2020-03-23 13:00:00 13.4 11 Este 21 Nordeste 0 940.9 -0.5 63
2020-03-23 12:00:00 13.1 8 Este 22 Este 0 941.2 0.2 71
2020-03-23 11:00:00 10.5 8 Este 19 Este 0 941.5 0.8 87
2020-03-23 10:00:00 8.6 5 Este 13 Este 0 941.4 1 94
2020-03-23 09:00:00 6.9 3 Nordeste 11 Nordeste 0 941 0.9 99
2020-03-23 08:00:00 6.3 3 Nordeste 10 Nordeste 0.2 940.7 0.9 99
2020-03-23 07:00:00 6.1 4 Este 10 Nordeste 0 940.4 0.6 99
2020-03-23 06:00:00 5.9 5 Este 9 Este 0 940.1 0.1 99
2020-03-23 05:00:00 5.6 3 Nordeste 10 Este 0 939.8 -0.1 98
2020-03-23 04:00:00 5.9 6 Nordeste 10 Este 0 939.8 -0.4 98
2020-03-23 03:00:00 5.9 4 Este 15 Nordeste 0 940 -0.2 97
2020-03-23 02:00:00 6.5 5 Sudeste 13 Nordeste 0 939.9 -0.1 97
2020-03-23 01:00:00 6.9 3 Este 9 Nordeste 0 940.2 0.4 96
2020-03-23 00:00:00 7.3 6 Este 10 Sudeste 0 940.2 0.9 95
2020-03-22 23:00:00 7.7 5 Este 9 Este 0 940 1.3 93
2020-03-22 22:00:00 8.3 4 Este 7 Este 0 939.8 1.5 93
2020-03-22 21:00:00 8.5 2 Nordeste 10 Nordeste 0 939.3 1.5 92
2020-03-22 20:00:00 8.7 5 Nordeste 11 Nordeste 0 938.7 1.2 93
2020-03-22 19:00:00 9.1 6 Norte 14 Norte 0 938.3 0.7 89
2020-03-22 18:00:00 9.7 4 Norte 18 Norte 0.6 937.8 -0.3 87
2020-03-22 17:00:00 10.9 4 Norte 12 Noroeste 0.4 937.5 -1.3 80
2020-03-22 16:00:00 11 6 Noroeste 15 Oeste 0.8 937.6 -1.4 82
2020-03-22 15:00:00 10.8 7 Noroeste 14 Noroeste 0 938.1 -1.2 82
2020-03-22 14:00:00 9.1 2 Este 5 Sudeste 0.4 938.8 -0.4 89
2020-03-22 13:00:00 8.3 2 Norte 6 Nordeste 1 939 0.1 93
2020-03-22 12:00:00 7.8 4 Este 13 Nordeste 0.8 939.3 0.8 94
2020-03-22 11:00:00 7.3 9 Nordeste 15 Nordeste 0 939.2 1 94
2020-03-22 10:00:00 5.9 6 Nordeste 13 Nordeste 0 938.9 0.8 100
2020-03-22 09:00:00 4.3 3 Este 8 Nordeste 0 938.5 0.9 100
2020-03-22 08:00:00 3.1 2 Noroeste 5 Norte 0 938.2 0.8 99
2020-03-22 07:00:00 3.5 0 Calma 7 Sur 0 938.1 0.3 99
2020-03-22 06:00:00 3.6 3 Nordeste 9 Nordeste 0 937.6 -0.4 98
2020-03-22 05:00:00 4 2 Norte 10 Norte 0 937.4 -0.9 97
2020-03-22 04:00:00 4.7 3 Nordeste 7 Nordeste 0 937.8 -0.8 96
2020-03-22 03:00:00 5.3 4 Este 10 Este 0 938 -0.9 96
2020-03-22 02:00:00 6.2 4 Nordeste 8 Nordeste 0 938.3 -0.8 95
2020-03-22 01:00:00 7 6 Nordeste 10 Nordeste 0 938.6 -0.4 94
2020-03-22 00:00:00 7.9 4 Nordeste 10 Sur 1 938.9 0.4 93
2020-03-21 23:00:00 8.5 6 Sudoeste 17 Sur 0.8 939.1 1.3 89
2020-03-21 22:00:00 9.6 5 Sur 14 Sur 0 939 1.5 79
2020-03-21 21:00:00 9.5 8 Este 21 Nordeste 0 938.5 1.3 74
2020-03-21 20:00:00 10.6 7 Este 16 Este 0 937.8 0.2 65
2020-03-21 19:00:00 11.6 6 Este 13 Nordeste 0 937.5 -0.7 60
2020-03-21 18:00:00 12.8 5 Nordeste 16 Nordeste 0 937.2 -1.7 54
2020-03-21 17:00:00 13.5 4 Nordeste 14 Sudeste 0 937.6 -2.1 51
2020-03-21 16:00:00 13 6 Sudeste 14 Sur 0 938.2 -1.9 53
2020-03-21 15:00:00 13.1 9 Sur 17 Sur 0 938.9 -1.5 55
2020-03-21 14:00:00 11 10 Sur 18 Sudeste 0 939.7 -0.7 67
2020-03-21 13:00:00 10.6 8 Sudeste 17 Sudeste 0 940.1 -0.4 74
2020-03-21 12:00:00 9.9 5 Sur 13 Sur 0 940.4 0 76
2020-03-21 11:00:00 8 0 Calma 11 Oeste 0.4 940.4 0.8 86
2020-03-21 10:00:00 6.9 4 Oeste 19 Sudoeste 0.8 940.5 1.5 88
2020-03-21 09:00:00 7.1 12 Oeste 30 Oeste 0.2 940.4 2 87
2020-03-21 08:00:00 7.8 13 Sudoeste 27 Sudoeste 1.2 939.6 1.1 93
2020-03-21 07:00:00 8.2 3 Este 14 Este 0.8 939 0.1 94
2020-03-21 06:00:00 8.2 8 Este 13 Nordeste 0.8 938.4 -1 93
2020-03-21 05:00:00 8.4 6 Nordeste 18 Este 0 938.5 -1.4 89
2020-03-21 04:00:00 8.7 8 Este 14 Este 0 938.9 -1.4 87
2020-03-21 03:00:00 9 7 Este 19 Este 0 939.4 -1.3 85
2020-03-21 02:00:00 8.9 11 Este 18 Este 0 939.9 -0.8 86
2020-03-21 01:00:00 9 10 Nordeste 19 Nordeste 0 940.3 0 86
2020-03-21 00:00:00 9.5 12 Este 30 Este 0 940.7 0.7 84
2020-03-20 23:00:00 9.8 13 Este 31 Este 0 940.7 1.1 83
2020-03-20 22:00:00 11.2 16 Nordeste 30 Nordeste 0 940.3 0.8 77
2020-03-20 21:00:00 12.7 13 Nordeste 24 Nordeste 0 940 0.4 71
2020-03-20 20:00:00 15.3 4 Este 16 Nordeste 0 939.6 -0.3 58
2020-03-20 19:00:00 17 7 Este 13 Este 0 939.5 -0.8 50
2020-03-20 18:00:00 18.2 6 Nordeste 13 Nordeste 0 939.6 -1.4 48
2020-03-20 17:00:00 18.8 4 Norte 15 Este 0 939.9 -1.9 46
2020-03-20 16:00:00 19.1 8 Nordeste 18 Nordeste 0 940.3 -1.9 44
2020-03-20 15:00:00 18.8 5 Nordeste 18 Nordeste 0 941 -1.7 45
2020-03-20 14:00:00 18.2 6 Este 22 Este 0 941.8 -1.3 47
2020-03-20 13:00:00 16.7 9 Nordeste 21 Nordeste 0 942.2 -0.9 53
2020-03-20 12:00:00 14.9 12 Este 20 Este 0 942.7 -0.1 60
2020-03-20 11:00:00 13 10 Este 17 Este 0 943.1 0.4 66
2020-03-20 10:00:00 10.5 13 Este 21 Este 0 943.1 0.6 77
2020-03-20 09:00:00 7.7 9 Este 17 Este 0 942.8 0.3 90
2020-03-20 08:00:00 6.8 8 Nordeste 14 Nordeste 0 942.7 0.4 92
2020-03-20 07:00:00 6.8 7 Este 11 Sudeste 0 942.5 0.1 93
2020-03-20 06:00:00 7.1 4 Este 11 Este 0 942.5 -0.4 92
2020-03-20 05:00:00 7.5 4 Nordeste 13 Nordeste 0 942.3 -0.6 91
2020-03-20 04:00:00 8 7 Este 17 Nordeste 0 942.4 -0.6 90
2020-03-20 03:00:00 8.4 8 Este 18 Nordeste 0 942.9 -0.5 91
2020-03-20 02:00:00 8.8 8 Nordeste 19 Nordeste 0 942.9 -0.5 90
2020-03-20 01:00:00 9.3 9 Nordeste 19 Este 0 943 -0.1 87
2020-03-20 00:00:00 10.1 10 Nordeste 21 Nordeste 0 943.4 0.5 81
2020-03-19 23:00:00 11.1 10 Nordeste 23 Nordeste 0 943.4 0.6 76
2020-03-19 22:00:00 11.8 13 Nordeste 31 Nordeste 0 943.1 0.6 70
2020-03-19 21:00:00 12.6 15 Nordeste 27 Nordeste 0 942.9 0.6 68
2020-03-19 20:00:00 14.1 12 Nordeste 25 Norte 0 942.8 0 64
2020-03-19 19:00:00 16 12 Nordeste 28 Nordeste 0 942.5 -0.9 58
2020-03-19 18:00:00 17.9 12 Nordeste 28 Nordeste 0 942.3 -1.7 51
2020-03-19 17:00:00 18.7 10 Nordeste 20 Nordeste 0 942.8 -2.3 45
2020-03-19 16:00:00 18.8 9 Este 23 Nordeste 0 943.4 -2.7 45
2020-03-19 15:00:00 18.7 9 Este 21 Este 0 944 -2.8 45
2020-03-19 14:00:00 17.5 9 Este 23 Este 0 945.1 -2.5 50
2020-03-19 13:00:00 16 11 Nordeste 18 Nordeste 0 946.1 -1.5 55
2020-03-19 12:00:00 14.2 9 Este 19 Nordeste 0 946.8 -0.7 62
2020-03-19 11:00:00 11.6 9 Este 21 Nordeste 0 947.6 0.2 71
2020-03-19 10:00:00 8.8 9 Este 19 Nordeste 0 947.6 0.1 83
2020-03-19 09:00:00 6.5 13 Este 23 Este 0 947.5 0 92
2020-03-19 08:00:00 5.4 10 Nordeste 18 Nordeste 0 947.4 0 94
2020-03-19 07:00:00 5.5 10 Nordeste 21 Nordeste 0 947.5 -0.1 92
2020-03-19 06:00:00 5.8 11 Nordeste 26 Nordeste 0 947.5 -0.3 91
2020-03-19 05:00:00 5.9 9 Nordeste 21 Nordeste 0 947.4 -0.7 91
2020-03-19 04:00:00 6.4 9 Nordeste 24 Nordeste 0 947.6 -1 86
2020-03-19 03:00:00 7 13 Nordeste 28 Nordeste 0 947.8 -1.3 81
2020-03-19 02:00:00 7.9 13 Nordeste 28 Nordeste 0 948.1 -1.1 77
2020-03-19 01:00:00 8.4 12 Nordeste 22 Este 0 948.6 -0.5 76
2020-03-19 00:00:00 8.8 11 Nordeste 23 Nordeste 0 949.1 0.2 77
2020-03-18 23:00:00 9.6 14 Nordeste 33 Nordeste 0 949.2 0.7 76
2020-03-18 22:00:00 10.7 18 Nordeste 34 Nordeste 0 949.1 0.8 71
2020-03-18 21:00:00 12 15 Nordeste 29 Nordeste 0 948.9 0.5 72
2020-03-18 20:00:00 12.7 17 Nordeste 29 Nordeste 0 948.5 -0.1 70
2020-03-18 19:00:00 12.9 15 Nordeste 37 Nordeste 0 948.3 -0.4 70
2020-03-18 18:00:00 13.7 17 Nordeste 39 Nordeste 0 948.4 -0.3 66
2020-03-18 17:00:00 14.8 23 Nordeste 46 Nordeste 0 948.6 -0.8 63
2020-03-18 16:00:00 15.4 19 Nordeste 42 Nordeste 0 948.7 -1.4 63
2020-03-18 15:00:00 16 19 Nordeste 43 Nordeste 0 948.7 -2.2 60
2020-03-18 14:00:00 16.4 20 Este 44 Nordeste 0 949.4 -1.7 60
2020-03-18 13:00:00 16 22 Nordeste 38 Nordeste 0 950.1 -1 66
2020-03-18 12:00:00 14.5 19 Este 39 Nordeste 0 950.9 0 69
2020-03-18 11:00:00 12.1 19 Nordeste 38 Nordeste 0 951.1 0.4 77
2020-03-18 10:00:00 11.3 24 Nordeste 40 Nordeste 0 951.1 0.6 81
2020-03-18 09:00:00 9.5 17 Nordeste 31 Nordeste 0 950.9 0.4 88
2020-03-18 08:00:00 8.4 15 Nordeste 32 Nordeste 0 950.7 0.6 91
2020-03-18 07:00:00 8.6 18 Nordeste 34 Nordeste 0 950.5 0.1 90
2020-03-18 06:00:00 8.7 16 Nordeste 40 Nordeste 0 950.5 0.2 88
2020-03-18 05:00:00 9.1 18 Nordeste 40 Este 0 950.1 -0.3 86
2020-03-18 04:00:00 9.2 18 Nordeste 32 Nordeste 0 950.4 0.1 87
2020-03-18 03:00:00 9.4 18 Nordeste 38 Nordeste 0 950.3 0.2 87
2020-03-18 02:00:00 9.9 19 Nordeste 39 Nordeste 0 950.4 -0.7 86
2020-03-18 01:00:00 10.8 23 Este 45 Nordeste 0 950.3 -0.4 84
2020-03-18 00:00:00 11.6 23 Nordeste 43 Nordeste 0 950.1 -0.3 87
2020-03-17 23:00:00 12.1 14 Nordeste 41 Este 0 951.1 1.6 86
2020-03-17 22:00:00 12.4 20 Este 36 Este 0 950.7 1.8 83
2020-03-17 21:00:00 12.2 15 Nordeste 43 Este 0 950.4 2.5 85
2020-03-17 20:00:00 13.1 15 Este 41 Nordeste 0 949.5 1.7 78
2020-03-17 19:00:00 15.2 19 Este 41 Nordeste 0 948.9 1.2 66
2020-03-17 18:00:00 16.5 18 Nordeste 32 Este 0 947.9 0.1 60
2020-03-17 17:00:00 17.3 16 Este 39 Nordeste 0 947.8 -0.6 44
2020-03-17 16:00:00 17.5 19 Este 37 Este 0 947.7 -0.7 39
2020-03-17 15:00:00 16.4 17 Este 36 Este 0 947.8 -0.9 37
2020-03-17 14:00:00 16.3 21 Este 42 Este 0 948.4 -0.3 40
2020-03-17 13:00:00 14.6 18 Este 38 Nordeste 0 948.4 0.1 43
2020-03-17 12:00:00 12.7 17 Este 29 Este 0 948.7 1.1 57
2020-03-17 11:00:00 10.4 14 Este 27 Este 0 948.7 1.6 66
2020-03-17 10:00:00 7.5 15 Nordeste 28 Este 0 948.3 2 81
2020-03-17 09:00:00 4.3 13 Este 23 Nordeste 0 947.6 2 93
2020-03-17 08:00:00 2.5 8 Este 20 Este 0 947.1 2 96
2020-03-17 07:00:00 2.1 9 Este 15 Nordeste 0 946.3 1.5 96
2020-03-17 06:00:00 2.5 9 Este 20 Nordeste 0 945.6 0.7 95
2020-03-17 05:00:00 2.7 10 Este 26 Nordeste 0 945.1 0.5 94
2020-03-17 04:00:00 3.1 8 Nordeste 18 Nordeste 0 944.8 0.4 92
2020-03-17 03:00:00 3.4 9 Nordeste 21 Este 0 944.9 1 85
2020-03-17 02:00:00 3.7 12 Este 19 Este 0 944.6 1 85
2020-03-17 01:00:00 3.2 6 Este 18 Nordeste 0 944.4 1.5 87
2020-03-17 00:00:00 4.2 8 Este 19 Sudeste 0 943.9 2 82
2020-03-16 23:00:00 4.2 11 Este 21 Este 0 943.6 2.7 83
2020-03-16 22:00:00 6 10 Este 17 Este 0 942.9 2.7 79
2020-03-16 21:00:00 6.9 9 Este 16 Este 0 941.9 2.3 76
2020-03-16 20:00:00 7.5 3 Nordeste 12 Sudoeste 0 940.9 1.6 72
2020-03-16 19:00:00 8.6 6 Sudoeste 16 Sur 0 940.2 0.8 64
2020-03-16 18:00:00 9.8 10 Sudeste 18 Sudeste 0 939.6 0.1 50
2020-03-16 17:00:00 9.8 8 Sur 23 Sur 0 939.3 -0.5 50
2020-03-16 16:00:00 10 9 Sudoeste 20 Sudoeste 0 939.4 -0.5 53
2020-03-16 15:00:00 8.9 6 Sudoeste 22 Oeste 0 939.5 -0.8 59
2020-03-16 14:00:00 7.7 10 Sudoeste 25 Sudoeste 0 939.8 -0.2 68
2020-03-16 13:00:00 6.5 15 Oeste 26 Sudoeste 0.4 939.9 -0.1 83
2020-03-16 12:00:00 4.7 11 Oeste 24 Sudoeste 0.4 940.3 0.6 88
2020-03-16 11:00:00 5 10 Sudoeste 26 Sudoeste 0 940 0.7 82
2020-03-16 10:00:00 5 11 Oeste 24 Sudoeste 0 940 1.3 81
2020-03-16 09:00:00 4.2 7 Sudoeste 23 Sudoeste 0 939.7 1.4 85
2020-03-16 08:00:00 2.9 7 Oeste 30 Oeste 0 939.3 1.6 89
2020-03-16 07:00:00 3.3 6 Oeste 24 Oeste 0 938.7 0.5 89
2020-03-16 06:00:00 4.2 15 Oeste 34 Oeste 0 938.3 0 88
2020-03-16 05:00:00 5.6 19 Sudoeste 34 Oeste 0.6 937.7 -0.9 92
2020-03-16 04:00:00 6.4 11 Oeste 36 Oeste 0.6 938.2 -0.5 91
2020-03-16 03:00:00 8.3 16 Oeste 33 Oeste 0.2 938.3 -1.2 90
2020-03-16 02:00:00 9.7 10 Oeste 36 Oeste 0 938.6 -1.8 92
2020-03-16 01:00:00 11.1 8 Sudoeste 21 Sudoeste 0 938.7 -2 95
2020-03-16 00:00:00 11.1 8 Sur 17 Sur 0.6 939.5 -1.7 96
2020-03-15 23:00:00 10.9 7 Oeste 23 Oeste 2.6 940.4 0.2 95
2020-03-15 22:00:00 11.1 6 Sudeste 23 Sudoeste 5.6 940.7 2.2 93
2020-03-15 21:00:00 12.6 13 Sudoeste 26 Sudoeste 2.4 941.2 2.5 85
2020-03-15 20:00:00 14.6 15 Noroeste 41 Noroeste 0 940.2 0.6 65
2020-03-15 19:00:00 17.7 3 Sur 13 Sudoeste 0 938.5 -1.2 41
2020-03-15 18:00:00 18.4 9 Noroeste 38 Sudoeste 0 938.7 -1.7 37
2020-03-15 17:00:00 21.1 11 Oeste 28 Oeste 0 939.6 -2 40
2020-03-15 16:00:00 22.4 13 Sudoeste 28 Sudoeste 0 939.7 -2.9 41
2020-03-15 15:00:00 22.5 10 Sudoeste 24 Sudoeste 0 940.4 -2.9 43
2020-03-15 14:00:00 20.8 10 Sudoeste 22 Sudoeste 0 941.6 -2.1 50
2020-03-15 13:00:00 19.4 5 Oeste 14 Oeste 0 942.6 -1.3 55
2020-03-15 12:00:00 17.9 5 Oeste 12 Oeste 0 943.3 -0.6 61
2020-03-15 11:00:00 15.9 2 Noroeste 7 Noroeste 0 943.7 0.1 62
2020-03-15 10:00:00 11.6 2 Noroeste 7 Noroeste 0 943.9 0.6 75
2020-03-15 09:00:00 9.1 0 Calma 6 Norte 0 943.9 0.7 82
2020-03-15 08:00:00 8.1 2 Este 4 Nordeste 0 943.6 0.4 84
2020-03-15 07:00:00 8.6 2 Este 7 Norte 0 943.3 -0.2 82
2020-03-15 06:00:00 9.4 0 Calma 6 Nordeste 0 943.2 -0.9 80
2020-03-15 05:00:00 10.5 0 Calma 3 Norte 0 943.2 -1.2 77
2020-03-15 04:00:00 11.5 3 Sudeste 7 Sur 0 943.5 -1.1 74
2020-03-15 03:00:00 10.5 3 Sudeste 4 Sur 0 944.1 -0.8 76
2020-03-15 02:00:00 10.8 0 Calma 5 Sudoeste 0 944.4 -0.5 71
2020-03-15 01:00:00 11.8 0 Calma 4 Sudoeste 0 944.6 -0.3 68
2020-03-15 00:00:00 12.7 0 Calma 5 Oeste 0 944.9 0.2 64
2020-03-14 23:00:00 14.1 2 Sudoeste 9 Oeste 0 944.9 0.5 60
2020-03-14 22:00:00 15 3 Oeste 5 Oeste 0 944.9 0.7 58
2020-03-14 21:00:00 16.4 3 Oeste 4 Noroeste 0 944.7 0.5 52
2020-03-14 20:00:00 18.5 0 Calma 8 Noroeste 0 944.4 0.1 44
2020-03-14 19:00:00 20.1 6 Noroeste 14 Noroeste 0 944.2 -0.4 40
2020-03-14 18:00:00 21.1 6 Oeste 14 Oeste 0 944.2 -0.9 40
2020-03-14 17:00:00 22 5 Oeste 13 Oeste 0 944.3 -1.6 40
2020-03-14 16:00:00 22.3 7 Noroeste 16 Sur 0 944.6 -2.1 40
2020-03-14 15:00:00 22.9 4 Este 15 Noroeste 0 945.1 -2.1 38
2020-03-14 14:00:00 20.9 5 Norte 14 Sudeste 0 945.9 -1.7 52
2020-03-14 13:00:00 19.6 4 Este 13 Este 0 946.7 -1 58
2020-03-14 12:00:00 17.6 4 Oeste 12 Sudeste 0 947.2 0.1 64
2020-03-14 11:00:00 15.5 6 Sudeste 14 Este 0 947.6 1.2 68
2020-03-14 10:00:00 10.8 5 Este 9 Nordeste 0 947.7 2 82
2020-03-14 09:00:00 8.6 3 Nordeste 11 Nordeste 0 947.1 1.5 89
2020-03-14 08:00:00 8.1 4 Norte 10 Norte 0 946.4 1.1 90
2020-03-14 07:00:00 8.5 4 Nordeste 5 Sudeste 0 945.7 0.4 92
2020-03-14 06:00:00 8.8 0 Calma 6 Noroeste 0 945.6 -0.2 89
2020-03-14 05:00:00 9.4 3 Noroeste 7 Noroeste 0 945.3 -0.4 87
2020-03-14 04:00:00 9.7 2 Noroeste 6 Noroeste 0 945.3 -0.4 85
2020-03-14 03:00:00 10.8 0 Calma 4 Oeste 0 945.8 0.2 83
2020-03-14 02:00:00 12.5 3 Sudoeste 7 Sudoeste 0 945.7 0.3 80
2020-03-14 01:00:00 13.7 4 Sudoeste 10 Sudoeste 0 945.7 1 77
2020-03-14 00:00:00 14.4 3 Sudoeste 9 Sudoeste 0 945.6 1.3 73
2020-03-13 23:00:00 15.3 3 Noroeste 12 Sudoeste 0 945.4 1.7 66
2020-03-13 22:00:00 16.3 4 Oeste 12 Noroeste 0 944.7 1.4 59
2020-03-13 21:00:00 17.2 6 Noroeste 13 Oeste 0 944.3 1.4 57
2020-03-13 20:00:00 18.8 5 Noroeste 20 Oeste 0 943.7 0.8 53
2020-03-13 19:00:00 20.6 9 Noroeste 23 Noroeste 0 943.3 0.2 45
2020-03-13 18:00:00 21.9 12 Noroeste 26 Noroeste 0 942.9 -0.4 34
2020-03-13 17:00:00 22.8 10 Noroeste 24 Sudoeste 0 942.9 -1.2 34
2020-03-13 16:00:00 23.3 12 Oeste 25 Oeste 0 943.1 -1.6 40
2020-03-13 15:00:00 22.8 11 Oeste 27 Noroeste 0 943.3 -2 41
2020-03-13 14:00:00 22.6 10 Oeste 20 Oeste 0 944.1 -1.2 42
2020-03-13 13:00:00 21.9 8 Oeste 20 Noroeste 0 944.7 -0.7 47
2020-03-13 12:00:00 21 6 Oeste 15 Oeste 0 945.3 0.1 50
2020-03-13 11:00:00 18.6 4 Oeste 9 Oeste 0 945.3 0.5 60
2020-03-13 10:00:00 15.3 3 Oeste 6 Oeste 0 945.4 0.9 68
2020-03-13 09:00:00 11.7 0 Calma 6 Oeste 0 945.2 0.8 75
2020-03-13 08:00:00 11.9 4 Sudoeste 7 Sudoeste 0 944.8 0.5 77
2020-03-13 07:00:00 11.9 3 Sudoeste 6 Sudoeste 0 944.5 0.3 75
2020-03-13 06:00:00 12.5 3 Oeste 12 Sudoeste 0 944.4 -0.4 72
2020-03-13 05:00:00 13.4 5 Sudoeste 13 Sudoeste 0 944.3 -0.8 67
2020-03-13 04:00:00 13.7 4 Sudoeste 14 Sudoeste 0 944.2 -0.8 66
2020-03-13 03:00:00 14.6 7 Sudoeste 13 Sudoeste 0 944.8 -0.7 60
2020-03-13 02:00:00 15.6 9 Sudoeste 15 Sudoeste 0 945.1 -0.1 53
2020-03-13 01:00:00 16.4 8 Oeste 13 Sudoeste 0 945 0.1 51
2020-03-13 00:00:00 17.3 5 Sudoeste 11 Sudoeste 0 945.5 0.6 46
2020-03-12 23:00:00 18.2 6 Sudoeste 14 Oeste 0 945.2 0.8 43
2020-03-12 22:00:00 19.1 6 Oeste 14 Sudoeste 0 944.9 0.7 39
2020-03-12 21:00:00 20 4 Oeste 14 Oeste 0 944.9 0.9 38
2020-03-12 20:00:00 21.6 4 Oeste 13 Oeste 0 944.4 0.4 35
2020-03-12 19:00:00 23.9 6 Oeste 19 Sudoeste 0 944.2 -0.2 32
2020-03-12 18:00:00 25.9 13 Sudoeste 22 Sudoeste 0 944 -1.3 25
2020-03-12 17:00:00 26.5 10 Sudoeste 23 Oeste 0 944 -2.3 25
2020-03-12 16:00:00 27 10 Oeste 23 Oeste 0 944.4 -3.1 29
2020-03-12 15:00:00 26.7 9 Oeste 19 Sudoeste 0 945.3 -2.7 30
2020-03-12 14:00:00 25.3 6 Noroeste 17 Oeste 0 946.3 -1.9 36
2020-03-12 13:00:00 23.3 7 Oeste 14 Oeste 0 947.5 -0.7 44
2020-03-12 12:00:00 20.3 4 Oeste 7 Oeste 0 948 0.1 50
2020-03-12 11:00:00 15.9 3 Noroeste 7 Noroeste 0 948.2 0.7 62
2020-03-12 10:00:00 12.3 0 Calma 9 Nordeste 0 948.2 0.9 71
2020-03-12 09:00:00 10.1 3 Norte 7 Noroeste 0 947.9 0.6 77
2020-03-12 08:00:00 8.9 3 Este 9 Este 0 947.5 -0.1 81
2020-03-12 07:00:00 9.6 5 Este 8 Sudeste 0 947.3 -0.8 81
2020-03-12 06:00:00 10.3 4 Noroeste 9 Noroeste 0 947.3 -1.4 80
2020-03-12 05:00:00 10.2 3 Norte 6 Nordeste 0 947.6 -1.5 78
2020-03-12 04:00:00 11.3 2 Sudeste 5 Este 0 948.1 -1.5 76
2020-03-12 03:00:00 12.1 2 Este 8 Noroeste 0 948.7 -1.1 73
2020-03-12 02:00:00 12.8 4 Noroeste 5 Noroeste 0 949.1 -0.4 70
2020-03-12 01:00:00 13.9 2 Noroeste 6 Sudeste 0 949.6 0.3 66
2020-03-12 00:00:00 15 3 Sur 5 Sur 0 949.8 0.8 62
2020-03-11 23:00:00 16.7 0 Calma 5 Oeste 0 949.5 0.8 56
2020-03-11 22:00:00 18.9 3 Oeste 13 Oeste 0 949.3 0.6 49
2020-03-11 21:00:00 20.2 5 Oeste 8 Oeste 0 949 0.2 43
2020-03-11 20:00:00 21.9 4 Noroeste 6 Noroeste 0 948.7 -0.1 37
2020-03-11 19:00:00 24.3 3 Norte 10 Norte 0 948.7 -0.5 35
2020-03-11 18:00:00 25.9 8 Noroeste 13 Noroeste 0 948.8 -0.8 27
2020-03-11 17:00:00 27.1 8 Noroeste 14 Norte 0 948.8 -1.7 28
2020-03-11 16:00:00 27.6 3 Noroeste 11 Nordeste 0 949.2 -2.3 26
2020-03-11 15:00:00 27.1 5 Nordeste 13 Nordeste 0 949.6 -2.5 29
2020-03-11 14:00:00 26 5 Sudeste 12 Sudeste 0 950.5 -1.8 31
2020-03-11 13:00:00 22.7 2 Norte 9 Este 0 951.5 -1 42
2020-03-11 12:00:00 20.6 3 Norte 9 Nordeste 0 952.1 -0.2 48
2020-03-11 11:00:00 17 2 Este 7 Este 0 952.3 0.4 59
2020-03-11 10:00:00 12.2 3 Norte 8 Nordeste 0 952.5 0.9 74
2020-03-11 09:00:00 8 3 Este 6 Este 0 952.3 0.8 88
2020-03-11 08:00:00 6.5 0 Calma 3 Norte 0 951.9 0.2 92
2020-03-11 07:00:00 7 0 Calma 3 Norte 0 951.6 -0.3 86
2020-03-11 06:00:00 7.9 2 Noroeste 3 Sur 0 951.5 -0.9 85
2020-03-11 05:00:00 8.4 0 Calma 4 Sudeste 0 951.7 -0.8 81
2020-03-11 04:00:00 9.2 3 Sudeste 5 Este 0 951.9 -0.8 80
2020-03-11 03:00:00 9.9 0 Calma 4 Noroeste 0 952.4 -0.6 78
2020-03-11 02:00:00 11.3 0 Calma 7 Sudoeste 0 952.5 -0.2 75
2020-03-11 01:00:00 11.9 3 Sudoeste 5 Sudoeste 0 952.7 0.1 73
2020-03-11 00:00:00 13.2 3 Sudeste 6 Oeste 0 953 0.5 66
2020-03-10 23:00:00 15.2 3 Oeste 7 Oeste 0 952.7 0.4 61
2020-03-10 22:00:00 16.6 3 Oeste 12 Sudoeste 0 952.6 0.4 55
2020-03-10 21:00:00 18.2 8 Sudoeste 11 Sudoeste 0 952.5 0.5 49
2020-03-10 20:00:00 19.6 4 Sudoeste 10 Sudoeste 0 952.3 0.1 45
2020-03-10 19:00:00 21.2 5 Sudoeste 10 Oeste 0 952.2 -0.3 39
2020-03-10 18:00:00 22.2 4 Noroeste 17 Noroeste 0 952 -1 34
2020-03-10 17:00:00 23.2 8 Oeste 18 Noroeste 0 952.2 -1.6 31
2020-03-10 16:00:00 23.4 5 Oeste 13 Noroeste 0 952.5 -1.7 32
2020-03-10 15:00:00 21.9 4 Noroeste 14 Norte 0 953 -1.7 35
2020-03-10 14:00:00 20.8 9 Noroeste 13 Norte 0 953.8 -1.1 33
2020-03-10 13:00:00 19.8 3 Oeste 11 Este 0 954.2 -0.5 33
2020-03-10 12:00:00 17.7 5 Sudeste 11 Este 0 954.7 0.3 39
2020-03-10 11:00:00 15.5 4 Sudeste 8 Este 0 954.9 0.9 41
2020-03-10 10:00:00 11.3 5 Este 7 Este 0 954.7 1.2 54
2020-03-10 09:00:00 7.4 0 Calma 5 Sudoeste 0 954.4 1.4 73
2020-03-10 08:00:00 6 5 Sur 11 Sur 0 954 1 76
2020-03-10 07:00:00 6.3 0 Calma 9 Sur 0 953.5 0.6 74
2020-03-10 06:00:00 6 3 Noroeste 5 Noroeste 0 953 -0.3 75
2020-03-10 05:00:00 6.9 0 Calma 7 Noroeste 0 953 -0.6 70
2020-03-10 04:00:00 7.7 3 Noroeste 10 Noroeste 0 952.9 -0.7 68
2020-03-10 03:00:00 7.9 4 Noroeste 5 Noroeste 0 953.3 -0.2 61
2020-03-10 02:00:00 8.8 0 Calma 4 Nordeste 0 953.6 0.1 54
2020-03-10 01:00:00 9.9 3 Nordeste 9 Este 0 953.6 0.8 50
2020-03-10 00:00:00 11 0 Calma 15 Norte 0 953.5 1.2 47
2020-03-09 23:00:00 12.5 4 Nordeste 11 Sur 0 953.5 2 42
2020-03-09 22:00:00 12.9 4 Norte 9 Norte 0 952.8 1.6 47
2020-03-09 21:00:00 14.6 5 Noroeste 9 Oeste 0 952.3 1.7 50
2020-03-09 20:00:00 15.7 4 Oeste 16 Noroeste 0 951.5 0.2 43
2020-03-09 19:00:00 17.5 8 Noroeste 19 Noroeste 0 951.2 -0.4 37
2020-03-09 18:00:00 18.6 8 Noroeste 19 Oeste 0 950.6 -1.3 33
2020-03-09 17:00:00 19 7 Noroeste 16 Noroeste 0 951.3 -1.4 34
2020-03-09 16:00:00 18.8 4 Oeste 12 Este 0 951.6 -1.8 41
2020-03-09 15:00:00 18.2 4 Sur 17 Oeste 0 951.9 -1.9 45
2020-03-09 14:00:00 17.2 9 Oeste 15 Oeste 0 952.7 -1 46
2020-03-09 13:00:00 16 5 Este 12 Noroeste 0 953.4 0.4 54
2020-03-09 12:00:00 14.4 5 Nordeste 11 Nordeste 0 953.8 1 61
2020-03-09 11:00:00 12.2 5 Noroeste 12 Noroeste 0 953.7 1.4 71
2020-03-09 10:00:00 10.2 5 Oeste 10 Noroeste 0 953 1 80
2020-03-09 09:00:00 7.5 6 Oeste 10 Oeste 0 952.8 0.6 88
2020-03-09 08:00:00 6.9 4 Oeste 13 Sudoeste 0 952.3 0.2 89
2020-03-09 07:00:00 7.1 6 Sudoeste 15 Sudoeste 0 952 0.4 88
2020-03-09 06:00:00 7.3 5 Sudoeste 13 Sudoeste 0 952.2 0.1 85
2020-03-09 05:00:00 7.4 7 Sudoeste 13 Sudoeste 0 952.1 0 83
2020-03-09 04:00:00 8.2 6 Sudoeste 17 Sudoeste 0 951.6 -0.4 78
2020-03-09 03:00:00 8.7 8 Oeste 19 Sudoeste 0 952.1 -0.1 75
2020-03-09 02:00:00 9.4 8 Sudoeste 18 Oeste 0 952.1 -0.2 71
2020-03-09 01:00:00 10.5 5 Oeste 16 Oeste 0 952 -0.2 67
2020-03-09 00:00:00 11.4 7 Oeste 17 Oeste 0 952.2 0.5 63
2020-03-08 23:00:00 12.2 9 Oeste 17 Sudoeste 0 952.3 1.2 58
2020-03-08 22:00:00 13 9 Oeste 17 Oeste 0 952.2 0.9 55
2020-03-08 21:00:00 14 9 Noroeste 24 Oeste 0 951.7 0.6 54
2020-03-08 20:00:00 15.3 12 Oeste 21 Sudoeste 0 951.1 0.3 47
2020-03-08 19:00:00 16.7 10 Oeste 20 Oeste 0 951.3 0.5 43
2020-03-08 18:00:00 18.1 9 Oeste 24 Oeste 0 951.1 -0.2 36
2020-03-08 17:00:00 19.2 9 Oeste 23 Sudoeste 0 950.8 -1.3 31
2020-03-08 16:00:00 19.4 11 Oeste 27 Noroeste 0 950.8 -2 32
2020-03-08 15:00:00 18.9 12 Oeste 24 Noroeste 0 951.3 -1.9 30
2020-03-08 14:00:00 18.1 9 Oeste 22 Oeste 0 952.1 -1.3 34
2020-03-08 13:00:00 17.1 9 Oeste 19 Oeste 0 952.8 -0.3 41
2020-03-08 12:00:00 15.2 9 Oeste 15 Oeste 0 953.2 0.4 50
2020-03-08 11:00:00 13.2 4 Sur 9 Sudoeste 0 953.4 1.2 55
2020-03-08 10:00:00 8 3 Sur 6 Sur 0 953.1 1 74
2020-03-08 09:00:00 2.8 0 Calma 3 Sudeste 0 952.8 0.6 87
2020-03-08 08:00:00 1.8 2 Sudeste 5 Sudeste 0 952.2 0.2 91
2020-03-08 07:00:00 2 3 Sudeste 8 Sudeste 0 952.1 0.2 92
2020-03-08 06:00:00 2 2 Sudeste 5 Oeste 0 952.2 -0.2 87
2020-03-08 05:00:00 2.8 2 Noroeste 7 Sudoeste 0 952 -1 86
2020-03-08 04:00:00 3.6 3 Sudoeste 5 Sudoeste 0 951.9 -1.1 83
2020-03-08 03:00:00 4.4 3 Sudeste 5 Sur 0 952.4 -0.9 82
2020-03-08 02:00:00 4.9 2 Sudeste 4 Sudeste 0 953 -0.4 77
2020-03-08 01:00:00 6.4 2 Norte 8 Este 0 953 -0.1 72
2020-03-08 00:00:00 7.6 5 Oeste 9 Oeste 0 953.3 0.9 68